This is the latest recevied weather packets stored in our database for station/object VK3BYD-3. If no packets are shown the sender has not sent any weather packets the latest 10 day(s).
| Time | Temp. | Humidity | Pressure | Rain* | Wind** | Luminosity | Snow |
|---|---|---|---|---|---|---|---|
| 1777797023 | 16.11° C | 95% | 1014.5 hPa | 6.86 mm | - | - | - |
| 1777796122 | 16.11° C | 95% | 1014.3 hPa | 12.7 mm | - | - | - |
| 1777795222 | 16.11° C | 94% | 1013.9 hPa | 11.43 mm | - | - | - |
| 1777794322 | 16.67° C | 92% | 1013.5 hPa | 10.67 mm | - | - | - |
| 1777793422 | 17.78° C | 93% | 1013.1 hPa | 8.13 mm | - | - | - |
| 1777792520 | 18.33° C | 92% | 1011.9 hPa | 0.51 mm | - | - | - |
| 1777791620 | 18.33° C | 90% | 1011.5 hPa | 0.51 mm | - | - | - |
| 1777790718 | 18.33° C | 90% | 1011.5 hPa | 0.51 mm | - | - | - |
| 1777789818 | 18.33° C | 91% | 1011.3 hPa | 1.27 mm | - | - | - |
| 1777788918 | 18.33° C | 90% | 1011.5 hPa | 4.06 mm | - | - | - |
| 1777788017 | 18.33° C | 91% | 1011.6 hPa | 3.81 mm | - | - | - |
| 1777787118 | 18.33° C | 91% | 1011.7 hPa | 3.81 mm | - | - | - |
| 1777786218 | 18.33° C | 89% | 1012.1 hPa | 3.05 mm | - | - | - |
| 1777785318 | 19.44° C | 83% | 1012.2 hPa | 0 mm | - | - | - |
| 1777784418 | 19.44° C | 84% | 1012.1 hPa | 0 mm | - | - | - |
| 1777783517 | 19.44° C | 85% | 1012.6 hPa | 0.25 mm | - | - | - |
| 1777782618 | 19.44° C | 85% | 1012.8 hPa | 0.25 mm | - | - | - |
| 1777781717 | 19.44° C | 85% | 1013.1 hPa | 0.25 mm | - | - | - |
| 1777780818 | 19.44° C | 87% | 1013.3 hPa | 0.51 mm | - | - | - |
| 1777779918 | 18.89° C | 86% | 1013.5 hPa | 0.25 mm | - | - | - |
| 1777779018 | 18.89° C | 86% | 1013.6 hPa | 0.76 mm | - | - | - |
| 1777778118 | 18.33° C | 88% | 1013.9 hPa | 0.76 mm | - | - | - |
| 1777777218 | 18.33° C | 88% | 1014.1 hPa | 0.51 mm | - | - | - |
| 1777776318 | 18.33° C | 86% | 1013.9 hPa | 0.51 mm | - | - | - |
| 1777775418 | 19.44° C | 83% | 1014.2 hPa | 0 mm | - | - | - |
* Rain latest hour (hover to see other rain measurements)
** Current wind speed in m/s (hover to see current wind gust speed)